Time;durP1;ratioP1;P1;durP2;ratioP2;P2;SDS_P1;SDS_P2;PMS_P1;PMS_P2;Temp;Humidity;BMP_temperature;BMP_pressure;BME280_temperature;BME280_humidity;BME280_pressure;Samples;Min_cycle;Max_cycle;Signal;HPM_P1;HPM_P2
2020/12/11 00:00:40;;;;;;;21.42;18.05;;;7.10;49.90;;;;;;5019495;28;20222;-93
2020/12/11 00:06:27;;;;;;;23.33;16.85;;;7.40;50.10;;;;;;5019475;28;20192;-94
2020/12/11 00:12:15;;;;;;;21.85;16.85;;;7.50;50.00;;;;;;5017896;28;20250;-93
2020/12/11 00:18:02;;;;;;;19.50;15.95;;;7.50;49.80;;;;;;5017914;28;20239;-92
2020/12/11 00:23:50;;;;;;;19.83;17.73;;;7.20;49.40;;;;;;5017757;28;20217;-92
2020/12/11 00:26:29;;;;;;;22.90;18.13;;;7.40;49.90;;;;;;5000518;28;20168;-92
2020/12/11 00:28:54;;;;;;;22.90;18.90;;;7.20;49.60;;;;;;5000348;28;20693;-92
2020/12/11 00:31:24;;;;;;;20.00;16.30;;;7.40;49.70;;;;;;5001152;28;20203;-93
2020/12/11 00:34:15;;;;;;;17.38;15.57;;;6.90;49.10;;;;;;4999990;28;20172;-93
2020/12/11 00:36:41;;;;;;;21.80;17.45;;;7.20;49.70;;;;;;5000699;28;20211;-93
2020/12/11 00:39:06;;;;;;;16.37;14.57;;;6.70;48.80;;;;;;5000051;28;20183;-94
2020/12/11 00:48:22;;;;;;;20.30;14.60;;;7.20;48.60;;;;;;5037691;28;20162;-93
2020/12/11 00:54:10;;;;;;;14.77;12.45;;;7.10;47.80;;;;;;5036641;28;20202;-93
2020/12/11 00:59:57;;;;;;;15.25;12.82;;;7.50;47.70;;;;;;5036002;28;20197;-94
2020/12/11 01:05:45;;;;;;;14.88;13.48;;;7.20;46.50;;;;;;5036723;28;20170;-95
2020/12/11 01:11:33;;;;;;;13.60;12.38;;;7.00;46.10;;;;;;5036906;28;20159;-95
2020/12/11 01:17:30;;;;;;;13.27;11.98;;;7.00;46.20;;;;;;5037068;28;20474;-95
2020/12/11 01:23:17;;;;;;;14.77;12.57;;;6.90;47.30;;;;;;5037400;28;20162;-96
2020/12/11 01:29:05;;;;;;;17.33;13.82;;;6.50;48.90;;;;;;5037446;28;20226;-95
2020/12/11 01:34:53;;;;;;;15.85;13.20;;;6.40;49.50;;;;;;5037458;28;20159;-94
2020/12/11 01:40:40;;;;;;;17.00;13.85;;;6.00;48.80;;;;;;5036764;28;20157;-95
2020/12/11 01:50:03;;;;;;;13.40;12.00;;;6.00;49.30;;;;;;5037134;28;20162;-96
2020/12/11 01:55:51;;;;;;;17.08;15.35;;;6.10;49.90;;;;;;5036374;28;20166;-94
2020/12/11 02:01:40;;;;;;;15.43;13.75;;;5.60;49.70;;;;;;5036294;28;20186;-95
2020/12/11 02:07:27;;;;;;;16.65;14.27;;;5.50;49.80;;;;;;5035390;28;20637;-95
2020/12/11 02:13:15;;;;;;;19.05;13.93;;;5.20;49.90;;;;;;5035521;28;20229;-94
2020/12/11 02:19:03;;;;;;;17.65;15.25;;;5.40;50.30;;;;;;5035769;28;20217;-94
2020/12/11 02:24:51;;;;;;;18.27;14.65;;;4.50;52.60;;;;;;5035547;28;20213;-94
2020/12/11 02:30:39;;;;;;;19.92;17.45;;;4.50;53.00;;;;;;5036101;28;20571;-94
2020/12/11 02:36:26;;;;;;;16.27;13.45;;;4.70;52.30;;;;;;5035894;28;20154;-92
2020/12/11 02:42:14;;;;;;;18.90;16.40;;;4.40;52.40;;;;;;5037285;28;20171;-93
2020/12/11 02:44:47;;;;;;;16.37;13.60;;;4.60;51.90;;;;;;5033543;28;20164;-92
2020/12/11 02:50:34;;;;;;;18.73;15.48;;;4.50;52.60;;;;;;5035979;28;20158;-93
2020/12/11 02:53:50;;;;;;;17.13;14.10;;;4.10;52.00;;;;;;5034211;28;20206;-94
2020/12/11 02:56:21;;;;;;;14.50;12.35;;;4.50;52.90;;;;;;5035574;28;20167;-93
2020/12/11 02:58:47;;;;;;;17.38;15.57;;;4.30;52.60;;;;;;5020335;28;20279;-94
2020/12/11 03:01:14;;;;;;;19.33;15.73;;;3.90;52.00;;;;;;5038324;28;20233;-92
2020/12/11 03:03:40;;;;;;;17.40;14.23;;;5.00;52.90;;;;;;5022335;28;20408;-94
2020/12/11 03:06:06;;;;;;;20.52;15.07;;;4.20;52.40;;;;;;5021545;28;20179;-92
2020/12/11 03:11:53;;;;;;;18.15;14.00;;;4.80;52.10;;;;;;5038353;28;20217;-93
2020/12/11 03:15:01;;;;;;;17.13;13.43;;;4.40;51.20;;;;;;5037609;28;20167;-91
2020/12/11 03:17:26;;;;;;;15.32;12.88;;;4.80;52.00;;;;;;5036517;28;20171;-92
2020/12/11 03:19:52;;;;;;;17.60;13.53;;;4.90;51.60;;;;;;5036506;28;20535;-92
2020/12/11 03:22:56;;;;;;;20.47;16.53;;;4.70;51.80;;;;;;5037085;28;20594;-93
2020/12/11 03:25:23;;;;;;;18.60;16.60;;;4.60;52.20;;;;;;5036982;28;20174;-92
2020/12/11 03:27:49;;;;;;;17.63;13.75;;;4.60;52.20;;;;;;5019817;28;20175;-93
2020/12/11 03:30:25;;;;;;;18.87;14.50;;;4.70;52.10;;;;;;5020366;28;20518;-94
2020/12/11 03:32:50;;;;;;;18.23;14.40;;;4.80;51.70;;;;;;5036766;28;20507;-95
2020/12/11 03:35:17;;;;;;;18.83;14.10;;;4.70;51.00;;;;;;5037178;28;20630;-92
2020/12/11 03:38:08;;;;;;;16.60;13.77;;;5.30;51.30;;;;;;5036697;28;20175;-92
2020/12/11 03:40:34;;;;;;;13.75;12.20;;;5.30;51.00;;;;;;5037408;28;20517;-92
2020/12/11 03:42:59;;;;;;;16.53;14.43;;;4.90;50.20;;;;;;5020066;28;20175;-92
2020/12/11 03:48:53;;;;;;;15.20;12.98;;;4.70;50.30;;;;;;5037090;28;20213;-93
2020/12/11 03:51:25;;;;;;;17.87;14.57;;;4.90;51.50;;;;;;5036004;28;20186;-93
2020/12/11 03:57:13;;;;;;;18.73;15.00;;;4.50;51.40;;;;;;5037667;28;20178;-92
2020/12/11 04:03:01;;;;;;;20.60;16.88;;;4.30;51.60;;;;;;5038139;28;20181;-92
2020/12/11 04:08:48;;;;;;;18.02;14.43;;;4.50;51.70;;;;;;5036857;28;20163;-92
2020/12/11 04:14:36;;;;;;;18.08;14.55;;;4.50;52.50;;;;;;5036898;28;20233;-92
2020/12/11 04:17:08;;;;;;;19.80;16.27;;;4.40;53.00;;;;;;5035759;28;20171;-91
2020/12/11 04:19:34;;;;;;;20.55;17.08;;;4.20;53.00;;;;;;5035407;28;20175;-93
2020/12/11 04:22:00;;;;;;;22.33;15.77;;;4.30;52.40;;;;;;5035495;28;20539;-92
2020/12/11 04:24:55;;;;;;;16.13;13.68;;;4.80;52.40;;;;;;5035489;28;20175;-92
2020/12/11 04:27:20;;;;;;;17.40;13.70;;;4.30;52.40;;;;;;5035594;28;20171;-94
2020/12/11 04:29:46;;;;;;;20.70;15.83;;;4.40;52.60;;;;;;5035909;28;20266;-92
2020/12/11 04:35:34;;;;;;;16.48;13.73;;;4.60;51.80;;;;;;5036228;28;20159;-91
2020/12/11 04:38:06;;;;;;;20.20;16.30;;;4.50;51.60;;;;;;5035003;28;20175;-91
2020/12/11 04:40:32;;;;;;;20.77;17.15;;;4.50;52.00;;;;;;5035377;28;20195;-92
2020/12/11 04:42:59;;;;;;;22.93;18.07;;;4.00;51.40;;;;;;5035129;28;20167;-92
2020/12/11 04:45:53;;;;;;;19.27;15.90;;;4.00;52.20;;;;;;5035342;28;20266;-91
2020/12/11 04:51:49;;;;;;;19.02;15.82;;;4.40;51.40;;;;;;5036760;28;20213;-92
2020/12/11 04:55:05;;;;;;;19.20;15.85;;;4.20;51.20;;;;;;5018892;28;20656;-92
2020/12/11 04:57:32;;;;;;;24.45;16.38;;;4.00;51.00;;;;;;5034921;28;20645;-93
2020/12/11 04:59:58;;;;;;;19.90;15.98;;;3.60;50.30;;;;;;5018427;28;20266;-92
2020/12/11 05:05:46;;;;;;;27.25;19.75;;;4.20;51.40;;;;;;5035983;28;20289;-91
2020/12/11 05:11:33;;;;;;;26.90;17.25;;;3.40;53.50;;;;;;5035656;28;20158;-91
2020/12/11 05:17:27;;;;;;;23.45;16.45;;;3.10;56.30;;;;;;5035685;28;20158;-91
2020/12/11 05:23:15;;;;;;;24.95;18.30;;;3.30;55.40;;;;;;5035810;28;20213;-90
2020/12/11 05:26:18;;;;;;;23.43;19.87;;;3.70;54.10;;;;;;5017567;28;20417;-92
2020/12/11 05:28:45;;;;;;;25.92;18.67;;;3.70;53.20;;;;;;5017208;28;20190;-92
2020/12/11 05:31:13;;;;;;;21.13;16.48;;;3.30;51.90;;;;;;5017559;28;20178;-92
2020/12/11 05:37:01;;;;;;;20.27;15.80;;;3.70;51.70;;;;;;5034912;28;20209;-92
2020/12/11 05:43:06;;;;;;;22.42;16.85;;;3.70;51.40;;;;;;5035149;28;20158;-92
2020/12/11 05:49:29;;;;;;;19.00;15.65;;;3.70;51.40;;;;;;5034333;28;20276;-92
2020/12/11 05:52:14;;;;;;;22.45;17.60;;;3.60;51.20;;;;;;5034086;28;20179;-93
2020/12/11 05:54:53;;;;;;;21.00;15.98;;;3.60;51.30;;;;;;5040248;28;20245;-94
2020/12/11 05:57:21;;;;;;;23.67;17.63;;;3.00;50.80;;;;;;5034171;28;20171;-92
2020/12/11 06:00:08;;;;;;;20.40;17.10;;;3.20;50.80;;;;;;5033880;28;20606;-93
2020/12/11 06:15:57;;;;;;;24.15;17.85;;;3.50;53.20;;;;;;4976924;28;20180;-92
2020/12/11 08:34:03;;;;;;;20.92;16.10;;;4.90;49.70;;;;;;5020951;28;20194;-94
2020/12/11 08:36:30;;;;;;;20.67;15.32;;;4.40;48.60;;;;;;5002207;28;20206;-95
2020/12/11 08:39:12;;;;;;;19.65;15.00;;;5.10;48.90;;;;;;5003263;28;20226;-94
2020/12/11 08:42:22;;;;;;;16.15;13.55;;;5.50;48.90;;;;;;5003444;28;20614;-94
2020/12/11 08:51:06;;;;;;;21.10;17.00;;;5.40;47.60;;;;;;5020441;28;20215;-95
2020/12/11 08:53:36;;;;;;;19.80;15.63;;;5.60;46.60;;;;;;5000907;28;20202;-90
2020/12/11 08:56:21;;;;;;;19.25;16.13;;;5.50;45.90;;;;;;4998704;28;20176;-90
2020/12/11 08:58:47;;;;;;;20.40;16.88;;;5.50;46.10;;;;;;5000073;28;20262;-93
2020/12/11 09:01:12;;;;;;;17.93;14.53;;;4.90;46.20;;;;;;4999932;28;20192;-89
2020/12/11 09:03:38;;;;;;;17.17;15.20;;;5.40;47.20;;;;;;5000183;28;20586;-89
2020/12/11 09:06:04;;;;;;;14.55;13.15;;;5.40;47.10;;;;;;4998139;28;20183;-90
2020/12/11 09:08:30;;;;;;;16.03;14.03;;;5.60;46.80;;;;;;4998118;28;20172;-88
2020/12/11 09:11:27;;;;;;;18.67;14.87;;;6.30;47.00;;;;;;4998092;28;20645;-88
2020/12/11 09:13:52;;;;;;;14.80;12.75;;;5.90;46.50;;;;;;4999288;28;20650;-89
2020/12/11 09:16:18;;;;;;;15.30;12.33;;;5.40;45.00;;;;;;4998421;28;20257;-88
2020/12/11 09:19:14;;;;;;;16.80;12.33;;;6.60;46.00;;;;;;4998052;28;20183;-88
2020/12/11 09:21:40;;;;;;;17.52;14.07;;;6.00;44.90;;;;;;4998072;28;20168;-88
2020/12/11 09:24:15;;;;;;;15.30;13.53;;;6.10;45.00;;;;;;5015349;28;20226;-88
2020/12/11 09:26:41;;;;;;;14.48;12.98;;;6.10;44.60;;;;;;4978334;28;20643;-88
2020/12/11 09:32:48;;;;;;;19.77;15.07;;;6.40;44.80;;;;;;4997959;28;20201;-88
2020/12/11 09:35:22;;;;;;;18.55;14.20;;;6.40;44.00;;;;;;4990247;28;20278;-88
2020/12/11 09:37:57;;;;;;;15.63;13.40;;;6.20;43.50;;;;;;4978770;28;20176;-88
2020/12/11 09:54:09;;;;;;;17.30;13.75;;;6.50;42.40;;;;;;4949329;28;20239;-89
2020/12/11 09:56:47;;;;;;;15.45;13.80;;;6.70;42.10;;;;;;4995169;28;20515;-88
2020/12/11 09:59:44;;;;;;;18.30;14.70;;;6.60;42.10;;;;;;4978115;28;20184;-88
2020/12/11 10:05:01;;;;;;;18.05;14.35;;;6.50;42.10;;;;;;4997413;28;20585;-88
2020/12/11 10:07:27;;;;;;;13.68;12.35;;;6.50;41.60;;;;;;4981999;28;20183;-88
2020/12/11 10:10:16;;;;;;;15.77;13.40;;;5.80;41.70;;;;;;4981951;28;20176;-87
2020/12/11 10:12:42;;;;;;;16.00;14.15;;;6.60;41.90;;;;;;4982211;28;20211;-88
2020/12/11 10:15:10;;;;;;;15.90;13.20;;;5.90;41.00;;;;;;4981779;28;20164;-88
2020/12/11 10:17:37;;;;;;;15.93;13.35;;;6.40;41.80;;;;;;4981725;28;20200;-88
2020/12/11 10:20:05;;;;;;;16.70;14.00;;;6.60;41.90;;;;;;4981902;28;20180;-88
2020/12/11 10:22:31;;;;;;;16.33;13.07;;;6.30;41.60;;;;;;4981816;28;20176;-88
2020/12/11 10:24:57;;;;;;;17.08;13.15;;;6.20;41.00;;;;;;4986600;28;20207;-88
2020/12/11 10:27:23;;;;;;;17.03;13.53;;;6.70;41.70;;;;;;5001494;28;20548;-87
2020/12/11 10:30:03;;;;;;;17.13;13.87;;;6.80;42.00;;;;;;5001195;28;20414;-88
2020/12/11 10:32:28;;;;;;;15.38;13.65;;;7.00;42.00;;;;;;5000953;28;20214;-88
2020/12/11 10:34:54;;;;;;;17.70;14.43;;;6.80;42.20;;;;;;5001434;28;20646;-88
2020/12/11 10:37:23;;;;;;;15.87;14.17;;;6.20;41.80;;;;;;5018573;28;20175;-88
2020/12/11 10:39:50;;;;;;;16.85;14.35;;;6.90;42.20;;;;;;5000836;28;20176;-88
2020/12/11 10:42:18;;;;;;;16.35;13.63;;;7.00;40.30;;;;;;5000789;28;20186;-88
2020/12/11 10:44:43;;;;;;;13.40;11.70;;;7.60;41.80;;;;;;5001383;28;20641;-90
2020/12/11 10:47:18;;;;;;;17.80;14.40;;;6.70;41.40;;;;;;5001375;28;20207;-88
2020/12/11 10:49:44;;;;;;;17.40;14.13;;;6.90;41.90;;;;;;5001056;28;20543;-87
2020/12/11 10:52:10;;;;;;;16.90;14.03;;;7.30;41.10;;;;;;5001042;28;20176;-88
2020/12/11 10:54:38;;;;;;;15.20;13.60;;;7.60;40.90;;;;;;5000893;28;20403;-87
2020/12/11 10:57:03;;;;;;;15.13;13.48;;;7.10;39.90;;;;;;5000568;28;20267;-87
2020/12/11 10:59:29;;;;;;;21.50;16.20;;;7.90;40.40;;;;;;5000867;28;20199;-85
2020/12/11 11:01:55;;;;;;;16.67;14.48;;;7.50;39.00;;;;;;5000705;28;20176;-88
2020/12/11 11:04:22;;;;;;;19.50;14.90;;;7.70;39.10;;;;;;5000723;28;20226;-88
2020/12/11 11:07:12;;;;;;;16.13;13.00;;;7.60;39.20;;;;;;5001667;28;20536;-88
2020/12/11 11:20:32;;;;;;;14.75;12.95;;;8.50;39.80;;;;;;5018250;28;20160;-87
2020/12/11 11:28:47;;;;;;;15.77;12.75;;;8.00;37.90;;;;;;4919613;29;20272;-87
2020/12/11 11:31:13;;;;;;;18.25;14.63;;;8.30;38.30;;;;;;4903724;29;20183;-88
2020/12/11 11:33:42;;;;;;;17.33;13.67;;;8.00;38.00;;;;;;4919314;29;20225;-87
2020/12/11 11:36:10;;;;;;;14.85;13.32;;;8.20;38.60;;;;;;4913836;29;20250;-89
2020/12/11 11:38:49;;;;;;;15.10;13.27;;;8.20;38.60;;;;;;4919359;29;20187;-87
2020/12/11 11:41:41;;;;;;;15.93;14.23;;;7.70;38.60;;;;;;4919213;29;20171;-89
2020/12/11 11:46:52;;;;;;;19.40;15.80;;;7.90;40.10;;;;;;4994148;28;20203;-87
2020/12/11 11:49:33;;;;;;;16.95;13.18;;;8.00;39.80;;;;;;4980942;28;20267;-89
2020/12/11 11:54:30;;;;;;;19.35;15.35;;;8.20;39.80;;;;;;4998908;28;20164;-88
2020/12/11 11:56:58;;;;;;;16.30;13.70;;;8.30;39.90;;;;;;4980798;28;20184;-88
2020/12/11 11:59:25;;;;;;;19.42;14.25;;;8.20;39.60;;;;;;4980375;28;20263;-88
2020/12/11 12:01:54;;;;;;;17.05;13.90;;;8.50;39.70;;;;;;4981112;28;20223;-93
2020/12/11 12:04:22;;;;;;;16.13;14.20;;;8.50;40.10;;;;;;4982073;28;20180;-92
2020/12/11 12:06:48;;;;;;;14.88;12.85;;;8.30;39.60;;;;;;4980668;28;20176;-88
2020/12/11 12:09:17;;;;;;;16.40;14.37;;;7.90;39.80;;;;;;4980108;28;20176;-88
2020/12/11 12:11:43;;;;;;;15.38;13.75;;;8.60;38.90;;;;;;4983912;28;20518;-88
2020/12/11 12:14:23;;;;;;;15.57;13.88;;;8.70;39.30;;;;;;4994118;28;20196;-93
2020/12/11 12:16:54;;;;;;;14.15;12.63;;;9.00;39.30;;;;;;5000962;28;20446;-94
2020/12/11 12:29:22;;;;;;;14.60;13.15;;;8.70;38.50;;;;;;5019707;28;20227;-92
2020/12/11 12:31:55;;;;;;;14.60;13.15;;;8.30;38.30;;;;;;5000856;28;20430;-93
2020/12/11 12:34:37;;;;;;;16.90;15.10;;;9.40;38.90;;;;;;5000269;28;20538;-93
2020/12/11 12:37:23;;;;;;;16.85;14.90;;;8.70;38.20;;;;;;4992515;28;20184;-94
2020/12/11 12:49:23;;;;;;;15.55;13.65;;;9.00;40.00;;;;;;4958881;29;20184;-93
2020/12/11 12:51:48;;;;;;;15.30;13.80;;;9.50;39.70;;;;;;4958032;29;20870;-94
2020/12/11 12:54:14;;;;;;;15.07;13.03;;;9.50;38.90;;;;;;4958378;29;20209;-94
2020/12/11 13:03:17;;;;;;;15.55;13.27;;;9.50;36.90;;;;;;4957806;29;20193;-93
2020/12/11 13:05:37;;;;;;;14.10;12.60;;;9.60;37.60;;;;;;4957442;29;20559;-93
2020/12/11 13:08:05;;;;;;;14.73;13.23;;;9.20;36.40;;;;;;4957265;29;20624;-93
2020/12/11 13:10:31;;;;;;;12.98;11.75;;;9.50;36.80;;;;;;4978826;28;20191;-93
2020/12/11 13:13:28;;;;;;;14.68;13.15;;;9.60;37.10;;;;;;4981085;28;20207;-92
2020/12/11 13:15:54;;;;;;;15.43;13.85;;;9.60;37.60;;;;;;4981595;28;20177;-94
2020/12/11 13:18:28;;;;;;;16.00;13.27;;;9.90;37.70;;;;;;4981371;28;20195;-94
2020/12/11 13:20:54;;;;;;;16.23;13.88;;;9.60;37.40;;;;;;4980792;28;20175;-94
2020/12/11 13:29:27;;;;;;;17.45;15.35;;;9.40;38.50;;;;;;5011565;28;20198;-93
2020/12/11 13:31:55;;;;;;;21.63;19.50;;;8.20;40.40;;;;;;4993889;28;20577;-92
2020/12/11 13:34:23;;;;;;;19.60;17.48;;;8.40;41.90;;;;;;4989970;28;20250;-92
2020/12/11 13:36:51;;;;;;;16.60;14.93;;;8.60;42.80;;;;;;4988857;28;20699;-93
2020/12/11 13:39:17;;;;;;;18.25;14.45;;;8.30;42.30;;;;;;4988767;28;20545;-92
2020/12/11 13:41:59;;;;;;;19.10;15.53;;;8.60;42.10;;;;;;4996989;28;20267;-94
2020/12/11 13:44:28;;;;;;;18.52;13.73;;;8.50;42.20;;;;;;4979429;28;20180;-93
2020/12/11 13:47:04;;;;;;;15.55;13.95;;;7.90;42.40;;;;;;4987043;28;20191;-94
2020/12/11 13:49:34;;;;;;;16.27;13.98;;;8.30;41.90;;;;;;4998871;28;20270;-93
2020/12/11 13:52:01;;;;;;;16.05;14.18;;;8.30;44.70;;;;;;4999160;28;20171;-91
2020/12/11 13:54:26;;;;;;;15.65;14.05;;;8.10;44.50;;;;;;4986235;28;20215;-92
2020/12/11 13:57:14;;;;;;;15.90;14.20;;;8.10;44.50;;;;;;4987521;28;20646;-92
2020/12/11 13:59:40;;;;;;;14.40;12.95;;;8.30;44.40;;;;;;4997822;28;20274;-92
2020/12/11 14:02:23;;;;;;;13.82;12.30;;;7.90;42.10;;;;;;4983432;28;20216;-93
2020/12/11 14:04:49;;;;;;;17.38;13.80;;;8.50;42.30;;;;;;4978068;28;20184;-93
2020/12/11 14:10:42;;;;;;;14.55;13.00;;;8.60;42.30;;;;;;4997914;28;20152;-93
2020/12/11 14:13:31;;;;;;;17.52;14.98;;;8.60;41.80;;;;;;4978305;28;20203;-94
2020/12/11 14:15:57;;;;;;;18.15;14.65;;;8.60;42.50;;;;;;4977998;28;20176;-94
2020/12/11 14:18:44;;;;;;;19.00;13.83;;;8.40;41.70;;;;;;4978990;28;20635;-94
2020/12/11 14:24:11;;;;;;;16.60;13.00;;;8.50;42.10;;;;;;4997122;28;20620;-95
2020/12/11 14:30:50;;;;;;;18.13;13.60;;;8.60;42.60;;;;;;4997000;28;20196;-93
2020/12/11 14:33:16;;;;;;;24.23;15.55;;;8.50;42.80;;;;;;4979076;28;20204;-93
2020/12/11 14:36:08;;;;;;;16.93;15.13;;;8.50;43.60;;;;;;4979679;28;20626;-93
2020/12/11 14:41:12;;;;;;;19.42;13.55;;;8.40;44.60;;;;;;5008009;28;20255;-94
2020/12/11 14:43:37;;;;;;;16.88;15.05;;;8.10;44.90;;;;;;5015672;28;20175;-93
2020/12/11 14:46:03;;;;;;;20.07;15.43;;;8.40;44.30;;;;;;4998553;28;20194;-94
2020/12/11 14:48:37;;;;;;;19.70;15.52;;;8.40;44.60;;;;;;4994527;28;20202;-87
2020/12/11 14:51:03;;;;;;;19.50;15.00;;;8.40;44.50;;;;;;4988005;28;20203;-87
2020/12/11 14:53:29;;;;;;;19.05;14.48;;;8.40;44.50;;;;;;4992198;28;20196;-87
2020/12/11 14:55:56;;;;;;;18.73;15.77;;;8.20;43.70;;;;;;4987686;28;20409;-87
2020/12/11 14:58:22;;;;;;;17.35;15.45;;;8.30;43.70;;;;;;4985387;28;20502;-87
2020/12/11 15:00:52;;;;;;;15.97;14.13;;;8.40;43.60;;;;;;4984483;28;20200;-86
2020/12/11 15:03:19;;;;;;;19.33;16.15;;;8.40;43.70;;;;;;4986479;28;20526;-86
2020/12/11 15:05:47;;;;;;;20.77;16.58;;;8.50;44.20;;;;;;4985184;28;20271;-86
2020/12/11 15:08:13;;;;;;;17.77;14.90;;;8.20;46.20;;;;;;4993594;28;20666;-87
2020/12/11 15:10:45;;;;;;;16.30;14.60;;;8.40;46.60;;;;;;4987727;28;20213;-87
2020/12/11 15:13:11;;;;;;;16.42;13.85;;;8.10;47.10;;;;;;4992825;28;21007;-87
2020/12/11 15:15:37;;;;;;;21.10;15.18;;;8.30;47.00;;;;;;4995691;28;20168;-86
2020/12/11 15:18:03;;;;;;;14.80;13.30;;;8.40;46.80;;;;;;4995836;28;20203;-89
2020/12/11 15:20:35;;;;;;;18.80;12.97;;;8.80;46.40;;;;;;4982209;28;20184;-87
2020/12/11 15:23:01;;;;;;;13.88;12.30;;;8.60;45.20;;;;;;5018477;28;20961;-87
2020/12/11 15:25:27;;;;;;;15.00;13.38;;;8.60;44.90;;;;;;4992547;28;20423;-89
2020/12/11 15:27:56;;;;;;;14.45;12.93;;;8.60;44.70;;;;;;4999489;28;20183;-87
2020/12/11 15:30:21;;;;;;;16.75;15.07;;;8.70;45.10;;;;;;5018439;28;20192;-87
2020/12/11 15:32:48;;;;;;;18.07;15.17;;;8.60;45.10;;;;;;5016444;28;20207;-87
2020/12/11 15:35:13;;;;;;;17.95;14.30;;;8.50;45.60;;;;;;4997996;28;20228;-89
2020/12/11 15:37:39;;;;;;;16.80;13.23;;;8.30;45.90;;;;;;5017814;28;20184;-87
2020/12/11 15:40:05;;;;;;;19.63;14.27;;;8.40;46.30;;;;;;4988840;28;20187;-87
2020/12/11 15:42:34;;;;;;;16.88;14.07;;;8.80;46.80;;;;;;4985142;28;20432;-88
2020/12/11 15:45:00;;;;;;;16.30;13.35;;;8.50;46.40;;;;;;5016544;28;20648;-86
2020/12/11 15:47:33;;;;;;;14.63;13.13;;;8.40;46.60;;;;;;5017986;28;20175;-87
2020/12/11 15:49:59;;;;;;;15.15;13.55;;;8.60;46.40;;;;;;5015928;28;20180;-87
2020/12/11 15:52:25;;;;;;;19.55;16.30;;;8.50;46.30;;;;;;5019629;28;20179;-86
2020/12/11 15:54:50;;;;;;;16.93;15.13;;;8.20;45.80;;;;;;5016288;28;20191;-87
2020/12/11 15:57:17;;;;;;;15.57;13.70;;;8.70;46.40;;;;;;4991340;28;20415;-87
2020/12/11 15:59:43;;;;;;;16.75;14.20;;;8.40;47.00;;;;;;5003450;28;20183;-88
2020/12/11 16:02:13;;;;;;;16.63;12.50;;;8.60;47.00;;;;;;5009481;28;20188;-88
2020/12/11 16:04:39;;;;;;;18.23;14.18;;;8.90;47.00;;;;;;5002936;28;20666;-88
2020/12/11 16:07:14;;;;;;;15.40;13.80;;;8.50;47.30;;;;;;4990947;28;20191;-90
2020/12/11 16:09:39;;;;;;;16.85;14.98;;;8.40;47.30;;;;;;5017253;28;20180;-89
2020/12/11 16:12:17;;;;;;;15.27;13.02;;;8.50;47.40;;;;;;4993533;28;20186;-88
2020/12/11 16:14:43;;;;;;;14.48;12.35;;;8.30;47.70;;;;;;4981751;28;20192;-88
2020/12/11 16:17:18;;;;;;;19.73;17.88;;;8.50;47.70;;;;;;4996761;28;20176;-90
2020/12/11 16:19:44;;;;;;;16.25;13.20;;;8.30;47.60;;;;;;4993080;28;20654;-90
2020/12/11 16:22:11;;;;;;;17.88;15.43;;;7.90;47.50;;;;;;5013127;28;20412;-89
2020/12/11 16:24:37;;;;;;;15.35;13.65;;;8.40;47.90;;;;;;4999801;28;20191;-90
2020/12/11 16:27:10;;;;;;;14.35;12.85;;;8.60;47.90;;;;;;4991207;28;20207;-89
2020/12/11 16:30:00;;;;;;;14.52;13.10;;;8.50;47.40;;;;;;4992220;28;20187;-91
2020/12/11 16:32:34;;;;;;;13.27;11.88;;;8.50;48.10;;;;;;5001315;28;20180;-89
2020/12/11 16:35:01;;;;;;;14.73;12.27;;;8.40;47.50;;;;;;4996474;28;20649;-89
2020/12/11 16:37:28;;;;;;;13.50;11.95;;;8.50;47.70;;;;;;4998028;28;20546;-89
2020/12/11 16:40:06;;;;;;;15.97;13.20;;;8.50;47.60;;;;;;4996604;28;20634;-89
2020/12/11 16:42:32;;;;;;;16.40;13.63;;;8.80;48.10;;;;;;5015235;28;20414;-88
2020/12/11 16:45:19;;;;;;;15.60;13.88;;;8.70;49.50;;;;;;5016063;28;20223;-88
2020/12/11 16:47:49;;;;;;;17.25;15.50;;;8.50;48.60;;;;;;4983907;28;20549;-90
2020/12/11 16:50:32;;;;;;;17.23;13.82;;;8.40;48.60;;;;;;4980507;28;20208;-91
2020/12/11 16:52:58;;;;;;;16.95;15.10;;;8.00;48.00;;;;;;5013084;28;20211;-88
2020/12/11 16:55:34;;;;;;;14.63;13.10;;;8.60;48.60;;;;;;4997205;28;20190;-87
2020/12/11 16:58:02;;;;;;;14.80;13.25;;;8.40;48.30;;;;;;4996361;28;20183;-88
2020/12/11 17:00:34;;;;;;;13.48;11.77;;;8.00;48.20;;;;;;4994850;28;20611;-90
2020/12/11 17:08:32;;;;;;;16.52;13.15;;;8.60;48.50;;;;;;4953687;28;20434;-90
2020/12/11 17:11:07;;;;;;;13.18;11.73;;;8.70;48.00;;;;;;4951569;28;20195;-89
2020/12/11 17:13:32;;;;;;;13.57;11.73;;;8.10;47.70;;;;;;4993059;28;21105;-90
2020/12/11 17:16:32;;;;;;;13.13;11.73;;;9.20;47.90;;;;;;4979296;28;20164;-90
2020/12/11 17:18:58;;;;;;;13.27;10.82;;;8.70;48.10;;;;;;4984195;28;20173;-89
2020/12/11 17:21:59;;;;;;;15.60;11.90;;;8.60;48.10;;;;;;4990336;28;20199;-90
2020/12/11 17:24:25;;;;;;;12.43;10.35;;;8.40;48.70;;;;;;4994974;28;20457;-94
2020/12/11 17:26:54;;;;;;;13.75;11.43;;;8.40;48.50;;;;;;5001221;28;20227;-91
2020/12/11 17:29:22;;;;;;;13.75;11.00;;;8.60;49.10;;;;;;4983995;28;20203;-94
2020/12/11 17:32:05;;;;;;;11.30;9.80;;;7.90;48.60;;;;;;4997542;28;20263;-91
2020/12/11 17:37:11;;;;;;;15.57;12.83;;;8.50;48.40;;;;;;5011108;28;20425;-91
2020/12/11 17:39:37;;;;;;;14.77;12.63;;;8.90;48.70;;;;;;4990026;28;20192;-91
2020/12/11 17:42:05;;;;;;;13.70;10.70;;;8.70;48.20;;;;;;4984686;28;20190;-91
2020/12/11 17:44:31;;;;;;;15.07;12.38;;;8.60;47.90;;;;;;4985930;28;20250;-91
2020/12/11 17:46:58;;;;;;;14.82;11.82;;;8.70;47.90;;;;;;4991565;28;20188;-93
2020/12/11 17:49:24;;;;;;;14.98;11.43;;;8.70;48.10;;;;;;4994356;28;20219;-92
2020/12/11 17:51:52;;;;;;;13.20;11.30;;;8.70;47.70;;;;;;4982304;28;20247;-92
2020/12/11 17:54:19;;;;;;;19.50;14.68;;;8.40;47.40;;;;;;4994820;28;20450;-91
2020/12/11 17:57:39;;;;;;;18.02;16.17;;;8.80;47.70;;;;;;4998612;28;20210;-92
2020/12/11 18:00:05;;;;;;;20.92;18.65;;;8.70;48.50;;;;;;4994703;28;20420;-92
2020/12/11 18:02:33;;;;;;;19.92;17.83;;;8.50;48.30;;;;;;4980922;28;20183;-92
2020/12/11 18:04:59;;;;;;;19.42;16.88;;;8.50;48.90;;;;;;4994957;28;20413;-92
2020/12/11 18:07:35;;;;;;;16.83;15.02;;;7.90;48.40;;;;;;4996959;28;20411;-92
2020/12/11 18:10:02;;;;;;;17.30;15.48;;;8.50;48.50;;;;;;4983845;28;20171;-92
2020/12/11 18:12:36;;;;;;;18.63;16.80;;;8.60;48.70;;;;;;5000067;28;20677;-93
2020/12/11 18:15:03;;;;;;;18.80;15.00;;;8.60;48.20;;;;;;4989738;28;20188;-90
2020/12/11 18:17:30;;;;;;;17.92;13.40;;;8.70;48.00;;;;;;4982146;28;20207;-90
2020/12/11 18:19:58;;;;;;;18.38;14.23;;;8.40;48.10;;;;;;4989740;28;20260;-89
2020/12/11 18:22:30;;;;;;;17.33;15.45;;;8.50;48.60;;;;;;4991316;28;20178;-89
2020/12/11 18:24:56;;;;;;;26.05;17.92;;;8.40;48.60;;;;;;4996716;28;20196;-89
2020/12/11 18:27:22;;;;;;;20.87;18.13;;;8.80;49.30;;;;;;4995679;28;20215;-90
2020/12/11 18:29:51;;;;;;;20.23;16.75;;;8.20;49.00;;;;;;4994047;28;20183;-89
2020/12/11 18:32:19;;;;;;;20.00;17.42;;;8.10;49.60;;;;;;5001831;28;20175;-92
2020/12/11 18:34:46;;;;;;;19.23;16.80;;;8.00;50.00;;;;;;4999428;28;20199;-91
2020/12/11 18:37:12;;;;;;;23.88;21.25;;;8.10;50.60;;;;;;4989048;28;20187;-92
2020/12/11 18:39:41;;;;;;;26.27;22.00;;;8.20;50.40;;;;;;4984403;28;20235;-92
2020/12/11 18:42:07;;;;;;;19.05;16.85;;;8.50;50.90;;;;;;4983959;28;20841;-92
2020/12/11 18:44:40;;;;;;;17.80;15.90;;;8.00;50.70;;;;;;4983169;28;20180;-92
2020/12/11 18:47:06;;;;;;;25.95;22.30;;;7.90;50.30;;;;;;4983415;28;20172;-92
2020/12/11 18:49:38;;;;;;;22.08;18.45;;;8.00;50.60;;;;;;4983621;28;20176;-91
2020/12/11 18:52:03;;;;;;;27.45;22.98;;;8.10;50.40;;;;;;4983156;28;20168;-92
2020/12/11 18:54:29;;;;;;;23.37;20.97;;;8.40;50.40;;;;;;4983453;28;20737;-91
2020/12/11 18:57:02;;;;;;;29.97;23.43;;;8.40;49.90;;;;;;4984147;28;20172;-94
2020/12/11 18:59:28;;;;;;;27.23;20.38;;;8.20;50.50;;;;;;4982702;28;20260;-92
2020/12/11 19:02:31;;;;;;;20.07;17.30;;;7.50;50.00;;;;;;4982950;28;20685;-93
2020/12/11 19:04:57;;;;;;;18.60;14.93;;;8.20;50.80;;;;;;4982346;28;20267;-93
2020/12/11 19:07:22;;;;;;;25.97;15.50;;;8.40;50.90;;;;;;4982364;28;20210;-93
2020/12/11 19:10:08;;;;;;;23.40;15.93;;;8.10;51.10;;;;;;4982495;28;20262;-92
2020/12/11 19:12:34;;;;;;;17.17;14.75;;;8.00;51.60;;;;;;4998649;28;20725;-93
2020/12/11 19:15:20;;;;;;;18.87;12.57;;;8.50;51.50;;;;;;4983529;28;20190;-93
2020/12/11 19:17:46;;;;;;;16.88;11.45;;;8.20;51.40;;;;;;4998396;28;20596;-93
2020/12/11 19:20:21;;;;;;;16.65;11.60;;;8.20;51.20;;;;;;5006257;28;20164;-93
2020/12/11 19:23:03;;;;;;;18.77;16.25;;;8.30;51.00;;;;;;5001047;28;20183;-92
2020/12/11 19:25:29;;;;;;;22.90;20.38;;;8.20;50.80;;;;;;5001406;28;20178;-93
2020/12/11 19:27:56;;;;;;;28.20;23.97;;;8.30;51.30;;;;;;5001314;28;20262;-92